createdAt,value
2023-05-13T00:01:38.996Z,12.46
2023-05-13T00:04:07.238Z,12.45
2023-05-13T00:06:36.138Z,12.40
2023-05-13T00:09:03.835Z,12.39
2023-05-13T00:11:30.853Z,12.41
2023-05-13T00:13:57.919Z,12.38
2023-05-13T00:16:27.940Z,12.35
2023-05-13T00:18:56.096Z,12.32
2023-05-13T00:21:23.910Z,12.26
2023-05-13T00:23:51.009Z,12.20
2023-05-13T00:26:18.095Z,12.18
2023-05-13T00:28:45.133Z,12.15
2023-05-13T00:31:12.266Z,12.14
2023-05-13T00:33:39.324Z,12.09
2023-05-13T00:36:07.783Z,12.07
2023-05-13T00:38:34.759Z,12.06
2023-05-13T00:41:03.154Z,12.04
2023-05-13T00:43:30.794Z,12.05
2023-05-13T00:45:58.894Z,12.03
2023-05-13T00:48:26.199Z,11.94
2023-05-13T00:50:53.110Z,11.91
2023-05-13T00:53:20.284Z,11.90
2023-05-13T00:55:47.444Z,11.83
2023-05-13T00:58:14.672Z,11.80
2023-05-13T01:01:27.051Z,11.75
2023-05-13T01:04:24.745Z,11.73
2023-05-13T01:06:54.747Z,11.64
2023-05-13T01:09:28.933Z,11.57
2023-05-13T01:11:58.847Z,11.55
2023-05-13T01:14:42.584Z,11.43
2023-05-13T01:17:19.017Z,11.41
2023-05-13T01:19:53.104Z,11.44
2023-05-13T01:22:20.188Z,11.41
2023-05-13T01:24:47.230Z,11.37
2023-05-13T01:27:14.812Z,11.35
2023-05-13T01:29:42.295Z,11.29
2023-05-13T01:32:11.163Z,11.32
2023-05-13T01:34:40.861Z,11.28
2023-05-13T01:37:07.989Z,11.24
2023-05-13T01:39:38.474Z,11.23
2023-05-13T01:42:05.929Z,11.17
2023-05-13T01:44:33.011Z,11.12
2023-05-13T01:47:00.139Z,11.08
2023-05-13T01:49:27.147Z,11.06
2023-05-13T01:51:54.140Z,11.00
2023-05-13T01:54:21.127Z,10.97
2023-05-13T01:56:48.129Z,10.92
2023-05-13T01:59:15.181Z,10.93
2023-05-13T02:01:42.858Z,10.88
2023-05-13T02:04:09.840Z,10.86
2023-05-13T02:06:36.809Z,10.78
2023-05-13T02:09:03.872Z,10.76
2023-05-13T02:11:30.923Z,10.72
2023-05-13T02:13:57.841Z,10.72
2023-05-13T02:16:25.034Z,10.63
2023-05-13T02:18:52.097Z,10.66
2023-05-13T02:21:19.127Z,10.63
2023-05-13T02:23:46.137Z,10.62
2023-05-13T02:26:13.216Z,10.56
2023-05-13T02:28:40.622Z,10.57
2023-05-13T02:31:07.725Z,10.47
2023-05-13T02:33:34.675Z,10.45
2023-05-13T02:36:01.673Z,10.40
2023-05-13T02:38:29.213Z,10.41
2023-05-13T02:40:56.305Z,10.36
2023-05-13T02:43:24.907Z,10.37
2023-05-13T02:45:51.921Z,10.32
2023-05-13T02:48:19.168Z,10.22
2023-05-13T02:50:46.219Z,10.25
2023-05-13T02:53:13.231Z,10.23
2023-05-13T02:55:40.312Z,10.19
2023-05-13T02:58:09.176Z,10.24
2023-05-13T03:00:36.211Z,10.20
2023-05-13T03:03:03.336Z,10.22
2023-05-13T03:05:30.327Z,10.17
2023-05-13T03:07:58.038Z,10.20
2023-05-13T03:10:25.106Z,10.22
2023-05-13T03:12:52.095Z,10.21
2023-05-13T03:15:19.422Z,10.19
2023-05-13T03:17:46.410Z,10.15
2023-05-13T03:20:13.549Z,10.14
2023-05-13T03:22:41.653Z,10.11
2023-05-13T03:25:09.160Z,10.06
2023-05-13T03:27:36.663Z,10.04
2023-05-13T03:30:04.412Z,10.00
2023-05-13T03:32:32.142Z,10.01
2023-05-13T03:35:01.105Z,9.98
2023-05-13T03:37:28.531Z,9.90
2023-05-13T03:39:55.928Z,9.98
2023-05-13T03:42:23.969Z,9.98
2023-05-13T03:44:51.336Z,9.99
2023-05-13T03:47:18.820Z,10.00
2023-05-13T03:49:48.100Z,10.00
2023-05-13T03:52:16.850Z,9.99
2023-05-13T03:54:44.230Z,9.97
2023-05-13T03:57:11.611Z,9.95
2023-05-13T03:59:38.992Z,9.99
2023-05-13T04:02:06.486Z,9.96
2023-05-13T04:04:33.615Z,9.99
2023-05-13T04:07:01.006Z,10.06
2023-05-13T04:09:28.365Z,10.13
2023-05-13T04:11:55.407Z,10.17
2023-05-13T04:14:22.384Z,10.17
2023-05-13T04:16:49.418Z,10.26
2023-05-13T04:19:19.467Z,10.36
2023-05-13T04:21:46.917Z,10.36
2023-05-13T04:24:14.288Z,10.32
2023-05-13T04:26:41.363Z,10.32
2023-05-13T04:29:18.206Z,10.34
2023-05-13T04:31:46.146Z,10.33
2023-05-13T04:34:13.594Z,10.34
2023-05-13T04:36:40.789Z,10.35
2023-05-13T04:39:08.163Z,10.34
2023-05-13T04:41:35.593Z,10.37
2023-05-13T04:44:03.064Z,10.36
2023-05-13T04:46:30.582Z,10.35
2023-05-13T04:48:58.006Z,10.39
2023-05-13T04:51:25.971Z,10.44
2023-05-13T04:53:53.874Z,10.51
2023-05-13T04:56:21.880Z,10.53
2023-05-13T04:58:49.595Z,10.54
2023-05-13T05:01:17.033Z,10.65
2023-05-13T05:03:44.472Z,10.75
2023-05-13T05:06:11.868Z,10.80
2023-05-13T05:08:39.272Z,10.88
2023-05-13T05:11:06.699Z,10.90
2023-05-13T05:13:34.094Z,10.95
2023-05-13T05:16:01.427Z,10.98
2023-05-13T05:18:28.846Z,11.07
2023-05-13T05:20:55.962Z,11.15
2023-05-13T05:23:23.349Z,11.22
2023-05-13T05:25:57.796Z,11.25
2023-05-13T05:28:31.895Z,11.31
2023-05-13T05:30:58.914Z,11.33
2023-05-13T05:33:26.345Z,11.44
2023-05-13T05:35:53.831Z,11.53
2023-05-13T05:38:21.548Z,11.63
2023-05-13T05:40:48.997Z,11.74
2023-05-13T05:43:16.690Z,11.84
2023-05-13T05:45:44.769Z,11.93
2023-05-13T05:48:11.834Z,12.04
2023-05-13T05:50:39.466Z,12.15
2023-05-13T05:53:07.184Z,12.16
2023-05-13T05:55:34.618Z,12.26
2023-05-13T05:58:05.654Z,12.25
2023-05-13T06:00:35.930Z,12.25
2023-05-13T06:03:03.171Z,12.29
2023-05-13T06:05:32.938Z,12.42
2023-05-13T06:07:59.924Z,12.56
2023-05-13T06:10:27.291Z,12.58
2023-05-13T06:12:54.313Z,12.60
2023-05-13T06:15:21.713Z,12.60
2023-05-13T06:17:48.665Z,12.64
2023-05-13T06:20:16.190Z,12.81
2023-05-13T06:22:43.153Z,12.95
2023-05-13T06:25:10.893Z,13.28
2023-05-13T06:27:38.321Z,13.33
2023-05-13T06:30:06.606Z,13.56
2023-05-13T06:32:33.858Z,13.60
2023-05-13T06:35:00.978Z,13.79
2023-05-13T06:37:28.179Z,13.77
2023-05-13T06:39:55.689Z,13.90
2023-05-13T06:42:22.659Z,13.74
2023-05-13T06:44:49.976Z,13.93
2023-05-13T06:47:17.017Z,14.02
2023-05-13T06:49:44.500Z,13.93
2023-05-13T06:52:11.780Z,14.07
2023-05-13T06:54:39.288Z,14.25
2023-05-13T06:57:07.443Z,14.37
2023-05-13T06:59:35.758Z,14.52
2023-05-13T07:02:02.950Z,14.48
2023-05-13T07:04:30.533Z,14.63
2023-05-13T07:06:57.876Z,14.55
2023-05-13T07:09:25.239Z,14.86
2023-05-13T07:11:52.494Z,14.94
2023-05-13T07:14:20.082Z,15.22
2023-05-13T07:16:47.129Z,14.94
2023-05-13T07:19:14.377Z,14.71
2023-05-13T07:21:41.427Z,14.88
2023-05-13T07:24:11.121Z,14.83
2023-05-13T07:26:38.909Z,15.08
2023-05-13T07:29:06.331Z,14.93
2023-05-13T07:31:33.529Z,14.90
2023-05-13T07:34:00.512Z,14.93
2023-05-13T07:36:28.017Z,15.20
2023-05-13T07:38:56.236Z,15.18
2023-05-13T07:41:23.315Z,15.41
2023-05-13T07:43:50.321Z,15.78
2023-05-13T07:46:17.288Z,16.14
2023-05-13T07:48:44.389Z,15.93
2023-05-13T07:51:11.819Z,15.67
2023-05-13T07:53:38.796Z,15.27
2023-05-13T07:56:06.027Z,15.63
2023-05-13T07:58:33.705Z,15.68
2023-05-13T08:01:00.771Z,15.72
2023-05-13T08:03:28.659Z,16.15
2023-05-13T08:05:55.757Z,16.25
2023-05-13T08:08:22.780Z,16.22
2023-05-13T08:10:49.961Z,16.27
2023-05-13T08:13:17.218Z,16.68
2023-05-13T08:15:44.327Z,16.33
2023-05-13T08:18:15.050Z,16.49
2023-05-13T08:20:42.668Z,16.39
2023-05-13T08:23:09.675Z,16.52
2023-05-13T08:25:36.737Z,16.03
2023-05-13T08:28:03.885Z,16.58
2023-05-13T08:30:31.095Z,17.16
2023-05-13T08:32:58.134Z,16.88
2023-05-13T08:35:26.172Z,17.27
2023-05-13T08:37:53.171Z,17.64
2023-05-13T08:40:21.267Z,17.19
2023-05-13T08:42:51.085Z,16.93
2023-05-13T08:45:21.743Z,17.69
2023-05-13T08:47:57.166Z,17.88
2023-05-13T08:50:25.879Z,18.13
2023-05-13T08:52:54.269Z,17.36
2023-05-13T08:55:22.979Z,17.56
2023-05-13T08:57:51.557Z,17.97
2023-05-13T09:00:21.209Z,17.64
2023-05-13T09:02:50.703Z,17.40
2023-05-13T09:05:18.559Z,17.81
2023-05-13T09:07:45.940Z,18.40
2023-05-13T09:10:12.958Z,18.42
2023-05-13T09:12:51.907Z,18.31
2023-05-13T09:15:25.183Z,18.25
2023-05-13T09:18:04.708Z,18.65
2023-05-13T09:20:33.189Z,18.66
2023-05-13T09:23:13.183Z,18.37
2023-05-13T09:25:40.635Z,18.58
2023-05-13T09:28:08.766Z,18.22
2023-05-13T09:30:40.405Z,18.92
2023-05-13T09:33:21.719Z,18.72
2023-05-13T09:35:53.517Z,18.95
2023-05-13T09:38:29.172Z,18.95
2023-05-13T09:41:03.141Z,18.84
2023-05-13T09:43:34.212Z,18.95
2023-05-13T09:46:03.718Z,18.78
2023-05-13T09:48:34.153Z,19.19
2023-05-13T09:51:02.329Z,19.15
2023-05-13T09:53:29.648Z,19.11
2023-05-13T09:55:58.748Z,19.06
2023-05-13T09:58:29.454Z,20.07
2023-05-13T10:00:58.079Z,19.75
2023-05-13T10:03:28.737Z,19.49
2023-05-13T10:05:57.493Z,19.54
2023-05-13T10:08:27.795Z,19.95
2023-05-13T10:10:56.403Z,19.70
2023-05-13T10:13:25.500Z,20.35
2023-05-13T10:15:55.544Z,19.98
2023-05-13T10:18:29.176Z,20.46
2023-05-13T10:20:56.947Z,20.92
2023-05-13T10:23:24.872Z,20.74
2023-05-13T10:25:54.876Z,20.66
2023-05-13T10:28:23.284Z,21.04
2023-05-13T10:30:54.332Z,21.19
2023-05-13T10:33:22.374Z,20.96
2023-05-13T10:39:32.398Z,21.57
2023-05-13T10:42:55.445Z,22.42
2023-05-13T10:45:27.694Z,21.88
2023-05-13T10:47:57.003Z,21.49
2023-05-13T10:50:25.480Z,21.33
2023-05-13T10:52:58.378Z,21.77
2023-05-13T10:55:27.542Z,21.61
2023-05-13T10:58:17.120Z,22.42
2023-05-13T11:00:45.829Z,21.71
2023-05-13T11:03:29.568Z,21.36
2023-05-13T11:06:20.142Z,21.66
2023-05-13T11:08:51.002Z,21.56
2023-05-13T11:11:36.232Z,22.39
2023-05-13T11:14:17.814Z,22.31
2023-05-13T11:17:04.539Z,22.11
2023-05-13T11:19:48.934Z,21.85
2023-05-13T11:22:22.015Z,21.95
2023-05-13T11:25:09.700Z,23.36
2023-05-13T11:27:41.721Z,23.21
2023-05-13T11:30:29.366Z,22.99
2023-05-13T11:32:58.584Z,22.13
2023-05-13T11:35:28.912Z,21.44
2023-05-13T11:38:00.085Z,22.49
2023-05-13T11:40:35.464Z,22.73
2023-05-13T11:43:05.155Z,22.73
2023-05-13T11:45:39.750Z,22.34
2023-05-13T11:48:22.453Z,22.88
2023-05-13T11:50:52.188Z,22.01
2023-05-13T11:53:23.177Z,21.98
2023-05-13T11:55:50.650Z,22.00
2023-05-13T11:58:17.776Z,22.44
2023-05-13T12:00:46.657Z,21.94
2023-05-13T12:03:16.443Z,22.70
2023-05-13T12:05:46.862Z,23.09
2023-05-13T12:08:13.965Z,21.75
2023-05-13T12:10:45.258Z,22.45
2023-05-13T12:13:13.146Z,23.27
2023-05-13T12:15:41.724Z,21.96
2023-05-13T12:18:09.369Z,22.24
2023-05-13T12:20:37.837Z,21.51
2023-05-13T12:23:06.432Z,21.76
2023-05-13T12:25:51.466Z,21.07
2023-05-13T12:28:22.513Z,20.75
2023-05-13T12:30:53.670Z,21.37
2023-05-13T12:33:42.581Z,20.39
2023-05-13T12:36:32.139Z,20.25
2023-05-13T12:39:05.532Z,19.47
2023-05-13T12:41:35.736Z,19.92
2023-05-13T12:44:15.939Z,19.79
2023-05-13T12:47:01.367Z,20.42
2023-05-13T12:49:28.577Z,20.52
2023-05-13T12:51:56.925Z,20.73
2023-05-13T12:54:24.047Z,20.56
2023-05-13T12:56:52.117Z,20.41
2023-05-13T12:59:19.310Z,20.07
2023-05-13T13:01:48.346Z,20.33
2023-05-13T13:04:16.968Z,20.29
2023-05-13T13:06:45.673Z,20.90
2023-05-13T13:09:13.306Z,21.28
2023-05-13T13:11:40.974Z,21.67
2023-05-13T13:14:08.367Z,21.47
2023-05-13T13:16:35.922Z,21.76
2023-05-13T13:19:03.699Z,21.62
2023-05-13T13:21:33.794Z,21.82
2023-05-13T13:24:01.052Z,21.73
2023-05-13T13:26:28.537Z,21.38
2023-05-13T13:28:56.482Z,21.70
2023-05-13T13:31:23.462Z,22.03
2023-05-13T13:33:50.468Z,22.66
2023-05-13T13:36:18.426Z,22.94
2023-05-13T13:38:45.855Z,22.17
2023-05-13T13:41:12.824Z,21.69
2023-05-13T13:43:39.852Z,21.43
2023-05-13T13:46:08.689Z,21.47
2023-05-13T13:48:37.321Z,21.63
2023-05-13T13:51:04.598Z,21.70
2023-05-13T13:53:31.651Z,22.17
2023-05-13T13:55:59.427Z,22.19
2023-05-13T13:58:26.859Z,22.96
2023-05-13T14:00:54.468Z,21.64
2023-05-13T14:03:21.934Z,21.76
2023-05-13T14:05:50.247Z,21.65
2023-05-13T14:08:17.809Z,21.98
2023-05-13T14:10:45.273Z,21.31
2023-05-13T14:13:12.565Z,21.60
2023-05-13T14:15:40.025Z,21.92
2023-05-13T14:18:10.163Z,21.27
2023-05-13T14:21:06.595Z,22.44
2023-05-13T14:23:33.922Z,23.17
2023-05-13T14:26:01.131Z,21.51
2023-05-13T14:28:28.504Z,20.02
2023-05-13T14:30:56.041Z,19.47
2023-05-13T14:33:23.371Z,19.53
2023-05-13T14:35:51.428Z,19.62
2023-05-13T14:38:18.916Z,18.89
2023-05-13T14:40:46.552Z,18.67
2023-05-13T14:43:13.974Z,18.32
2023-05-13T14:45:41.431Z,18.67
2023-05-13T14:48:08.892Z,18.47
2023-05-13T14:50:36.730Z,18.03
2023-05-13T14:53:04.491Z,17.77
2023-05-13T14:55:32.045Z,17.75
2023-05-13T14:57:59.728Z,18.28
2023-05-13T15:00:27.133Z,18.20
2023-05-13T15:02:54.890Z,17.52
2023-05-13T15:05:22.509Z,17.46
2023-05-13T15:07:50.134Z,17.19
2023-05-13T15:10:17.523Z,17.35
2023-05-13T15:12:45.302Z,17.22
2023-05-13T15:15:12.510Z,17.21
2023-05-13T15:17:40.103Z,16.99
2023-05-13T15:20:08.114Z,17.33
2023-05-13T15:22:35.575Z,17.37
2023-05-13T15:25:02.613Z,17.18
2023-05-13T15:27:30.126Z,17.36
2023-05-13T15:29:57.892Z,17.69
2023-05-13T15:32:25.310Z,17.57
2023-05-13T15:34:52.765Z,17.71
2023-05-13T15:37:20.270Z,17.49
2023-05-13T15:39:47.712Z,17.95
2023-05-13T15:42:15.860Z,18.35
2023-05-13T15:44:43.344Z,18.13
2023-05-13T15:47:11.041Z,17.96
2023-05-13T15:49:38.504Z,18.13
2023-05-13T15:52:07.146Z,18.26
2023-05-13T15:54:34.734Z,17.53
2023-05-13T15:57:02.089Z,17.41
2023-05-13T15:59:29.035Z,17.30
2023-05-13T16:01:56.151Z,17.33
2023-05-13T16:04:23.236Z,17.45
2023-05-13T16:06:50.328Z,17.22
2023-05-13T16:09:17.560Z,17.46
2023-05-13T16:11:45.023Z,17.47
2023-05-13T16:14:12.713Z,17.24
2023-05-13T16:16:40.035Z,17.40
2023-05-13T16:19:08.624Z,17.76
2023-05-13T16:21:43.109Z,18.59
2023-05-13T16:24:10.393Z,19.17
2023-05-13T16:26:37.559Z,19.44
2023-05-13T16:29:04.952Z,19.75
2023-05-13T16:31:32.242Z,20.16
2023-05-13T16:33:59.175Z,20.45
2023-05-13T16:36:26.914Z,20.57
2023-05-13T16:38:53.977Z,20.80
2023-05-13T16:41:21.373Z,20.26
2023-05-13T16:43:48.871Z,19.60
2023-05-13T16:46:17.543Z,19.17
2023-05-13T16:48:44.872Z,18.85
2023-05-13T16:51:11.902Z,18.69
2023-05-13T16:53:38.938Z,18.75
2023-05-13T16:56:06.234Z,18.61
2023-05-13T16:58:33.150Z,18.44
2023-05-13T17:01:01.118Z,18.84
2023-05-13T17:03:29.032Z,18.79
2023-05-13T17:05:56.610Z,18.74
2023-05-13T17:12:18.636Z,18.11
2023-05-13T17:14:46.059Z,18.01
2023-05-13T17:17:13.661Z,17.84
2023-05-13T17:19:41.495Z,17.69
2023-05-13T17:22:08.977Z,17.79
2023-05-13T17:24:36.526Z,17.74
2023-05-13T17:27:03.987Z,17.44
2023-05-13T17:29:31.316Z,17.36
2023-05-13T17:31:58.749Z,17.41
2023-05-13T17:34:26.450Z,17.53
2023-05-13T17:36:54.044Z,17.31
2023-05-13T17:39:21.105Z,17.15
2023-05-13T17:41:48.812Z,17.11
2023-05-13T17:44:16.000Z,17.07
2023-05-13T17:46:43.388Z,17.21
2023-05-13T17:49:11.005Z,17.37
2023-05-13T17:51:38.840Z,17.49
2023-05-13T17:54:11.556Z,17.32
2023-05-13T17:56:39.388Z,17.17
2023-05-13T17:59:09.850Z,17.14
2023-05-13T18:01:37.920Z,17.19
2023-05-13T18:04:05.619Z,17.01
2023-05-13T18:06:33.321Z,16.89
2023-05-13T18:09:01.197Z,16.75
2023-05-13T18:11:28.732Z,16.63
2023-05-13T18:13:56.353Z,16.42
2023-05-13T18:16:23.770Z,16.30
2023-05-13T18:18:51.293Z,16.37
2023-05-13T18:21:18.746Z,16.25
2023-05-13T18:23:46.697Z,16.36
2023-05-13T18:26:14.272Z,16.26
2023-05-13T18:28:45.058Z,16.11
2023-05-13T18:31:12.601Z,16.10
2023-05-13T18:33:40.106Z,16.09
2023-05-13T18:36:10.021Z,16.10
2023-05-13T18:38:37.764Z,15.96
2023-05-13T18:41:06.094Z,15.97
2023-05-13T18:43:33.355Z,16.09
2023-05-13T18:46:00.949Z,16.03
2023-05-13T18:48:28.381Z,15.98
2023-05-13T18:50:56.017Z,15.94
2023-05-13T18:53:23.460Z,15.79
2023-05-13T18:55:51.287Z,15.80
2023-05-13T18:58:18.931Z,15.78
2023-05-13T19:00:47.017Z,15.70
2023-05-13T19:03:14.947Z,15.57
2023-05-13T19:05:42.456Z,15.67
2023-05-13T19:08:10.448Z,15.48
2023-05-13T19:10:40.419Z,15.46
2023-05-13T19:13:08.220Z,15.35
2023-05-13T19:15:35.959Z,15.33
2023-05-13T19:18:03.601Z,15.30
2023-05-13T19:20:31.117Z,15.19
2023-05-13T19:22:58.497Z,15.25
2023-05-13T19:25:25.988Z,15.31
2023-05-13T19:27:53.394Z,15.24
2023-05-13T19:30:20.976Z,15.20
2023-05-13T19:32:48.738Z,15.23
2023-05-13T19:35:16.897Z,15.22
2023-05-13T19:37:44.324Z,15.22
2023-05-13T19:40:12.048Z,15.11
2023-05-13T19:42:39.754Z,15.05
2023-05-13T19:45:07.754Z,15.09
2023-05-13T19:47:35.618Z,15.09
2023-05-13T19:50:03.534Z,15.10
2023-05-13T19:52:31.171Z,15.07
2023-05-13T19:54:58.743Z,15.04
2023-05-13T19:57:28.633Z,14.99
2023-05-13T19:59:57.081Z,14.91
2023-05-13T20:02:24.481Z,14.85
2023-05-13T20:04:52.090Z,14.93
2023-05-13T20:07:19.179Z,14.87
2023-05-13T20:09:46.678Z,14.93
2023-05-13T20:12:13.762Z,14.94
2023-05-13T20:14:49.464Z,14.90
2023-05-13T20:17:19.773Z,14.93
2023-05-13T20:19:48.725Z,14.87
2023-05-13T20:22:18.069Z,14.89
2023-05-13T20:24:49.106Z,14.83
2023-05-13T20:27:17.669Z,14.95
2023-05-13T20:29:47.958Z,14.92
2023-05-13T20:32:24.623Z,14.85
2023-05-13T20:34:52.858Z,14.84
2023-05-13T20:37:23.378Z,14.83
2023-05-13T20:39:51.439Z,14.79
2023-05-13T20:42:21.618Z,14.84
2023-05-13T20:44:48.962Z,14.83
2023-05-13T20:47:16.773Z,14.83
2023-05-13T20:49:44.303Z,14.70
2023-05-13T20:52:11.620Z,14.70
2023-05-13T20:54:39.420Z,14.67
2023-05-13T20:57:06.813Z,14.67
2023-05-13T20:59:34.653Z,14.63
2023-05-13T21:02:02.050Z,14.60
2023-05-13T21:04:29.424Z,14.53
2023-05-13T21:06:57.434Z,14.49
2023-05-13T21:09:24.520Z,14.50
2023-05-13T21:11:51.916Z,14.40
2023-05-13T21:14:19.288Z,14.34
2023-05-13T21:16:46.673Z,14.38
2023-05-13T21:19:24.941Z,14.36
2023-05-13T21:21:52.314Z,14.38
2023-05-13T21:24:20.020Z,14.37
2023-05-13T21:26:49.176Z,14.30
2023-05-13T21:29:18.684Z,14.30
2023-05-13T21:31:47.046Z,14.30
2023-05-13T21:34:14.105Z,14.31
2023-05-13T21:36:41.524Z,14.25
2023-05-13T21:39:10.380Z,14.25
2023-05-13T21:41:38.009Z,14.26
2023-05-13T21:44:05.550Z,14.21
2023-05-13T21:46:32.969Z,14.19
2023-05-13T21:49:00.746Z,14.25
2023-05-13T21:51:28.401Z,14.22
2023-05-13T21:53:55.867Z,14.16
2023-05-13T21:56:23.252Z,14.14
2023-05-13T21:58:50.710Z,14.12
2023-05-13T22:01:18.203Z,14.12
2023-05-13T22:03:45.668Z,14.09
2023-05-13T22:06:12.978Z,14.07
2023-05-13T22:08:40.143Z,14.12
2023-05-13T22:11:07.483Z,14.04
2023-05-13T22:13:34.998Z,13.97
2023-05-13T22:16:02.510Z,13.90
2023-05-13T22:18:30.245Z,13.86
2023-05-13T22:20:58.813Z,13.87
2023-05-13T22:23:26.061Z,13.80
2023-05-13T22:25:53.490Z,13.81
2023-05-13T22:28:20.625Z,13.78
2023-05-13T22:30:49.413Z,13.78
2023-05-13T22:33:16.441Z,13.73
2023-05-13T22:35:43.606Z,13.71
2023-05-13T22:38:10.750Z,13.70
2023-05-13T22:40:38.149Z,13.67
2023-05-13T22:43:05.260Z,13.62
2023-05-13T22:45:32.687Z,13.63
2023-05-13T22:48:00.134Z,13.63
2023-05-13T22:50:27.293Z,13.66
2023-05-13T22:52:54.263Z,13.61
2023-05-13T22:55:21.890Z,13.59
2023-05-13T22:57:49.354Z,13.57
2023-05-13T23:00:16.832Z,13.51
2023-05-13T23:02:43.908Z,13.50
2023-05-13T23:05:11.446Z,13.51
2023-05-13T23:07:38.530Z,13.43
2023-05-13T23:10:06.202Z,13.37
2023-05-13T23:12:33.561Z,13.32
2023-05-13T23:15:01.017Z,13.30
2023-05-13T23:17:28.447Z,13.16
2023-05-13T23:19:55.935Z,13.02
2023-05-13T23:22:23.320Z,12.96
2023-05-13T23:24:50.397Z,13.00
2023-05-13T23:27:17.385Z,12.93
2023-05-13T23:29:44.492Z,12.97
2023-05-13T23:32:11.886Z,13.02
2023-05-13T23:34:39.260Z,13.07
2023-05-13T23:37:06.238Z,12.97
2023-05-13T23:39:33.634Z,12.90
2023-05-13T23:42:00.638Z,12.89
2023-05-13T23:44:27.621Z,12.82
2023-05-13T23:46:54.635Z,12.83
2023-05-13T23:49:21.604Z,12.78
2023-05-13T23:51:49.037Z,12.79
2023-05-13T23:54:19.717Z,12.62
2023-05-13T23:56:47.134Z,12.59
2023-05-13T23:59:14.601Z,12.62
